Aviation Digital Data Service (ADDS)

Output produced by METARs form (1042 UTC 03 July 2015)
found at http://www.aviationweather.gov/adds/metars/
 
KGED 031008Z AUTO 00000KT 3SM BR CLR 17/17 A2994 RMK AO2 T01720167